Terminal Aerodrome Forecast
Issued by NWS

Home | Current Version | Previous Version | Text Only | Print | Product List | Glossary Off
Versions: 1 2 3 4 5 6 7 8 9 10 11 12 13 14 15 16

000
FTUS43 KUNR 270932 AAB
TAFGCC
TAF AMD
KGCC 270932Z 2710/2806 27010KT P6SM BKN100
     FM280000 33016KT P6SM SCT120
     FM280200 28011KT P6SM BKN100=

USA.gov is the U.S. government's official web portal to all federal, state and local government web resources and services.